createdAt,value
2023-03-30T00:00:48.521Z,8.20
2023-03-30T00:03:15.793Z,8.05
2023-03-30T00:05:42.971Z,8.05
2023-03-30T00:08:10.150Z,8.30
2023-03-30T00:10:37.495Z,9.10
2023-03-30T00:13:05.064Z,7.95
2023-03-30T00:15:32.259Z,7.60
2023-03-30T00:17:59.693Z,9.93
2023-03-30T00:20:27.032Z,8.90
2023-03-30T00:22:54.680Z,9.40
2023-03-30T00:25:22.527Z,9.63
2023-03-30T00:27:49.958Z,8.73
2023-03-30T00:30:17.522Z,9.60
2023-03-30T00:32:44.748Z,8.63
2023-03-30T00:35:12.077Z,9.10
2023-03-30T00:37:43.391Z,9.55
2023-03-30T00:40:11.120Z,9.02
2023-03-30T00:42:38.780Z,9.25
2023-03-30T00:45:08.568Z,8.00
2023-03-30T00:47:36.943Z,8.48
2023-03-30T00:50:05.040Z,9.30
2023-03-30T00:52:32.615Z,8.55
2023-03-30T00:55:00.025Z,8.60
2023-03-30T00:57:27.194Z,9.13
2023-03-30T00:59:55.132Z,8.50
2023-03-30T01:02:23.795Z,8.48
2023-03-30T01:04:51.414Z,9.10
2023-03-30T01:07:20.877Z,8.90
2023-03-30T01:09:48.629Z,10.13
2023-03-30T01:12:16.570Z,9.20
2023-03-30T01:14:44.398Z,8.75
2023-03-30T01:17:12.993Z,9.88
2023-03-30T01:19:40.437Z,9.60
2023-03-30T01:22:09.094Z,8.45
2023-03-30T01:24:37.395Z,7.45
2023-03-30T01:27:05.746Z,8.88
2023-03-30T01:29:32.851Z,8.32
2023-03-30T01:32:00.242Z,8.80
2023-03-30T01:34:27.625Z,7.88
2023-03-30T01:36:55.008Z,10.27
2023-03-30T01:39:23.283Z,7.53
2023-03-30T01:41:50.632Z,8.82
2023-03-30T01:44:17.938Z,9.45
2023-03-30T01:46:45.307Z,9.50
2023-03-30T01:49:13.422Z,10.38
2023-03-30T01:51:41.423Z,7.20
2023-03-30T01:54:09.172Z,8.55
2023-03-30T01:56:36.874Z,9.15
2023-03-30T01:59:04.209Z,8.70
2023-03-30T02:01:31.692Z,8.32
2023-03-30T02:03:59.361Z,9.00
2023-03-30T02:06:27.414Z,7.25
2023-03-30T02:08:54.762Z,8.02
2023-03-30T02:11:21.929Z,9.50
2023-03-30T02:13:49.310Z,8.32
2023-03-30T02:16:18.320Z,9.65
2023-03-30T02:18:46.070Z,6.22
2023-03-30T02:21:13.901Z,8.00
2023-03-30T02:23:41.702Z,8.02
2023-03-30T02:26:08.905Z,8.88
2023-03-30T02:28:36.386Z,6.75
2023-03-30T02:31:04.110Z,7.18
2023-03-30T02:33:31.743Z,7.68
2023-03-30T02:35:59.008Z,7.45
2023-03-30T02:38:26.247Z,7.50
2023-03-30T02:40:53.865Z,7.20
2023-03-30T02:43:22.146Z,7.55
2023-03-30T02:45:49.311Z,7.80
2023-03-30T02:48:16.677Z,8.95
2023-03-30T02:50:44.313Z,8.85
2023-03-30T02:53:11.598Z,8.60
2023-03-30T02:55:38.720Z,10.40
2023-03-30T02:58:06.382Z,10.63
2023-03-30T03:00:33.685Z,10.15
2023-03-30T03:03:00.904Z,8.43
2023-03-30T03:05:28.072Z,9.40
2023-03-30T03:07:56.255Z,8.27
2023-03-30T03:10:23.813Z,8.18
2023-03-30T03:12:51.103Z,7.43
2023-03-30T03:15:18.383Z,7.20
2023-03-30T03:17:46.195Z,6.90
2023-03-30T03:20:13.541Z,8.68
2023-03-30T03:22:41.595Z,7.07
2023-03-30T03:25:09.080Z,7.25
2023-03-30T03:27:36.726Z,7.55
2023-03-30T03:30:04.378Z,8.13
2023-03-30T03:32:31.690Z,8.02
2023-03-30T03:34:59.014Z,7.97
2023-03-30T03:37:26.975Z,9.35
2023-03-30T03:39:54.369Z,8.45
2023-03-30T03:42:21.884Z,9.50
2023-03-30T03:44:49.802Z,9.10
2023-03-30T03:47:17.103Z,7.78
2023-03-30T03:49:44.573Z,7.95
2023-03-30T03:52:11.906Z,7.55
2023-03-30T03:54:40.675Z,8.15
2023-03-30T03:57:07.923Z,8.88
2023-03-30T03:59:35.101Z,8.48
2023-03-30T04:02:02.285Z,7.50
2023-03-30T04:04:32.260Z,8.18
2023-03-30T04:07:02.991Z,5.95
2023-03-30T04:09:32.625Z,8.23
2023-03-30T04:11:59.892Z,8.57
2023-03-30T04:14:27.098Z,11.50
2023-03-30T04:16:54.275Z,5.45
2023-03-30T04:19:21.470Z,7.95
2023-03-30T04:21:48.577Z,7.93
2023-03-30T04:24:15.728Z,8.35
2023-03-30T04:26:43.137Z,7.28
2023-03-30T04:29:10.278Z,7.97
2023-03-30T04:31:37.533Z,7.93
2023-03-30T04:34:04.696Z,9.05
2023-03-30T04:36:31.968Z,8.43
2023-03-30T04:38:59.116Z,8.02
2023-03-30T04:41:26.363Z,8.20
2023-03-30T04:43:53.601Z,7.90
2023-03-30T04:46:20.823Z,8.10
2023-03-30T04:48:48.148Z,7.50
2023-03-30T04:51:15.370Z,8.25
2023-03-30T04:53:42.722Z,6.97
2023-03-30T04:56:09.965Z,6.82
2023-03-30T04:58:37.120Z,7.03
2023-03-30T05:01:04.561Z,7.00
2023-03-30T05:03:31.894Z,7.00
2023-03-30T05:06:00.216Z,6.53
2023-03-30T05:08:27.462Z,4.50
2023-03-30T05:10:54.542Z,3.70
2023-03-30T05:13:21.760Z,4.15
2023-03-30T05:15:48.901Z,3.40
2023-03-30T05:18:16.125Z,3.25
2023-03-30T05:20:43.564Z,3.58
2023-03-30T05:23:10.701Z,3.13
2023-03-30T05:25:37.841Z,3.22
2023-03-30T05:28:05.039Z,1.92
2023-03-30T05:30:32.090Z,2.35
2023-03-30T05:32:59.334Z,2.35
2023-03-30T05:35:26.491Z,3.50
2023-03-30T05:37:53.600Z,2.47
2023-03-30T05:40:21.335Z,2.17
2023-03-30T05:42:48.427Z,2.92
2023-03-30T05:45:15.624Z,3.28
2023-03-30T05:47:42.779Z,1.70
2023-03-30T05:50:09.944Z,2.30
2023-03-30T05:52:37.039Z,1.95
2023-03-30T05:55:07.773Z,1.60
2023-03-30T05:57:34.948Z,1.67
2023-03-30T06:00:02.432Z,1.65
2023-03-30T06:02:29.744Z,1.70
2023-03-30T06:04:57.015Z,1.70
2023-03-30T06:07:24.205Z,1.88
2023-03-30T06:09:51.324Z,1.40
2023-03-30T06:12:18.457Z,1.90
2023-03-30T06:14:45.833Z,3.30
2023-03-30T06:17:13.013Z,6.63
2023-03-30T06:19:40.122Z,4.53
2023-03-30T06:22:07.418Z,3.28
2023-03-30T06:24:34.620Z,4.25
2023-03-30T06:27:01.766Z,4.45
2023-03-30T06:29:28.832Z,7.43
2023-03-30T06:31:55.987Z,3.13
2023-03-30T06:34:23.126Z,8.73
2023-03-30T06:36:52.423Z,8.60
2023-03-30T06:39:19.522Z,7.90
2023-03-30T06:41:46.887Z,6.00
2023-03-30T06:44:14.098Z,8.00
2023-03-30T06:46:41.213Z,8.60
2023-03-30T06:49:08.364Z,8.32
2023-03-30T06:51:35.629Z,8.45
2023-03-30T06:54:02.851Z,9.52
2023-03-30T06:56:29.923Z,8.82
2023-03-30T06:58:57.012Z,8.93
2023-03-30T07:01:24.223Z,6.72
2023-03-30T07:03:51.565Z,8.13
2023-03-30T07:06:20.129Z,7.20
2023-03-30T07:08:48.332Z,8.50
2023-03-30T07:11:15.494Z,7.65
2023-03-30T07:13:42.640Z,8.02
2023-03-30T07:16:09.800Z,7.53
2023-03-30T07:18:36.844Z,9.15
2023-03-30T07:21:04.094Z,7.75
2023-03-30T07:23:31.381Z,9.07
2023-03-30T07:25:58.495Z,7.93
2023-03-30T07:28:25.610Z,8.25
2023-03-30T07:30:52.904Z,7.72
2023-03-30T07:33:20.248Z,9.20
2023-03-30T07:35:47.462Z,7.70
2023-03-30T07:38:14.597Z,8.85
2023-03-30T07:40:41.680Z,7.93
2023-03-30T07:43:08.744Z,9.00
2023-03-30T07:45:35.930Z,9.10
2023-03-30T07:48:03.075Z,9.65
2023-03-30T07:50:30.201Z,7.68
2023-03-30T07:52:58.366Z,7.03
2023-03-30T07:55:25.457Z,6.68
2023-03-30T07:57:52.542Z,7.68
2023-03-30T08:00:19.703Z,7.70
2023-03-30T08:02:46.926Z,7.38
2023-03-30T08:05:14.139Z,7.35
2023-03-30T08:07:41.330Z,7.18
2023-03-30T08:10:08.438Z,6.35
2023-03-30T08:12:35.571Z,7.03
2023-03-30T08:15:02.745Z,6.93
2023-03-30T08:17:29.863Z,7.05
2023-03-30T08:19:57.106Z,6.88
2023-03-30T08:22:24.273Z,6.32
2023-03-30T08:24:51.402Z,6.32
2023-03-30T08:27:18.547Z,8.60
2023-03-30T08:29:45.681Z,8.05
2023-03-30T08:32:12.837Z,6.07
2023-03-30T08:34:40.012Z,5.25
2023-03-30T08:37:07.102Z,5.93
2023-03-30T08:39:36.294Z,5.20
2023-03-30T08:42:03.529Z,6.25
2023-03-30T08:44:30.788Z,6.03
2023-03-30T08:46:57.907Z,9.98
2023-03-30T08:49:25.011Z,5.78
2023-03-30T08:51:52.140Z,5.57
2023-03-30T08:54:19.249Z,4.85
2023-03-30T08:56:46.572Z,5.53
2023-03-30T08:59:13.681Z,7.70
2023-03-30T09:01:40.775Z,6.78
2023-03-30T09:04:07.832Z,7.68
2023-03-30T09:06:36.126Z,7.85
2023-03-30T09:09:03.161Z,6.57
2023-03-30T09:11:30.249Z,6.70
2023-03-30T09:13:57.459Z,6.57
2023-03-30T09:16:24.631Z,5.60
2023-03-30T09:18:51.870Z,5.40
2023-03-30T09:21:19.024Z,6.15
2023-03-30T09:23:50.401Z,5.15
2023-03-30T09:26:17.522Z,5.97
2023-03-30T09:28:44.738Z,5.13
2023-03-30T09:31:12.356Z,4.40
2023-03-30T09:33:39.599Z,5.38
2023-03-30T09:36:06.939Z,4.35
2023-03-30T09:38:34.323Z,4.07
2023-03-30T09:41:01.550Z,4.90
2023-03-30T09:43:28.765Z,4.28
2023-03-30T09:45:55.902Z,3.83
2023-03-30T09:48:23.123Z,5.18
2023-03-30T09:50:50.306Z,7.82
2023-03-30T09:53:17.489Z,4.95
2023-03-30T09:55:44.799Z,4.82
2023-03-30T09:58:11.951Z,3.47
2023-03-30T10:00:39.104Z,3.90
2023-03-30T10:03:06.307Z,4.80
2023-03-30T10:05:33.633Z,10.10
2023-03-30T10:08:00.725Z,4.82
2023-03-30T10:10:27.953Z,3.58
2023-03-30T10:12:55.172Z,3.60
2023-03-30T10:15:22.362Z,4.95
2023-03-30T10:17:53.233Z,3.88
2023-03-30T10:20:20.877Z,4.18
2023-03-30T10:22:48.169Z,4.40
2023-03-30T10:25:15.580Z,3.42
2023-03-30T10:27:42.904Z,3.80
2023-03-30T10:30:10.178Z,3.67
2023-03-30T10:32:37.572Z,3.70
2023-03-30T10:35:04.677Z,5.28
2023-03-30T10:37:31.777Z,4.22
2023-03-30T10:40:00.273Z,4.78
2023-03-30T10:42:28.907Z,4.70
2023-03-30T10:44:56.387Z,5.03
2023-03-30T10:47:23.841Z,5.63
2023-03-30T10:49:51.104Z,5.43
2023-03-30T10:52:18.344Z,6.03
2023-03-30T10:54:45.464Z,5.50
2023-03-30T10:57:12.603Z,5.88
2023-03-30T10:59:39.758Z,5.82
2023-03-30T11:02:06.869Z,6.20
2023-03-30T11:04:34.167Z,6.20
2023-03-30T11:07:01.382Z,7.05
2023-03-30T11:09:28.513Z,7.78
2023-03-30T11:11:55.727Z,7.30
2023-03-30T11:14:22.873Z,7.63
2023-03-30T11:16:51.434Z,8.48
2023-03-30T11:19:20.526Z,6.60
2023-03-30T11:21:47.743Z,5.80
2023-03-30T11:24:14.890Z,5.35
2023-03-30T11:26:41.994Z,5.15
2023-03-30T11:29:09.105Z,6.07
2023-03-30T11:31:36.317Z,5.80
2023-03-30T11:34:03.543Z,5.30
2023-03-30T11:36:30.696Z,5.10
2023-03-30T11:38:57.801Z,5.25
2023-03-30T11:41:24.915Z,4.63
2023-03-30T11:43:52.056Z,4.93
2023-03-30T11:46:19.531Z,3.60
2023-03-30T11:48:49.438Z,4.30
2023-03-30T11:51:16.677Z,3.53
2023-03-30T11:53:43.803Z,4.00
2023-03-30T11:56:10.956Z,3.05
2023-03-30T11:58:40.376Z,3.53
2023-03-30T12:01:08.030Z,4.07
2023-03-30T12:03:35.569Z,3.42
2023-03-30T12:06:03.027Z,3.22
2023-03-30T12:08:31.284Z,2.72
2023-03-30T12:10:58.610Z,3.03
2023-03-30T12:13:25.830Z,2.47
2023-03-30T12:15:53.047Z,3.10
2023-03-30T12:18:20.235Z,3.45
2023-03-30T12:20:47.392Z,3.40
2023-03-30T12:23:14.576Z,3.15
2023-03-30T12:25:41.799Z,2.60
2023-03-30T12:28:08.944Z,2.90
2023-03-30T12:30:37.276Z,2.15
2023-03-30T12:33:04.483Z,2.90
2023-03-30T12:35:31.811Z,2.83
2023-03-30T12:37:59.041Z,2.42
2023-03-30T12:40:28.496Z,1.77
2023-03-30T12:42:55.702Z,2.88
2023-03-30T12:45:22.920Z,2.60
2023-03-30T12:47:51.373Z,2.05
2023-03-30T12:50:18.586Z,2.10
2023-03-30T12:52:45.971Z,2.00
2023-03-30T12:55:13.121Z,1.85
2023-03-30T12:57:40.277Z,2.08
2023-03-30T13:00:07.571Z,2.70
2023-03-30T13:02:35.000Z,2.38
2023-03-30T13:05:02.212Z,1.98
2023-03-30T13:07:29.432Z,2.70
2023-03-30T13:09:56.594Z,2.58
2023-03-30T13:12:23.738Z,2.15
2023-03-30T13:14:50.863Z,2.45
2023-03-30T13:17:18.087Z,2.20
2023-03-30T13:19:45.200Z,1.95
2023-03-30T13:22:12.413Z,2.03
2023-03-30T13:24:39.575Z,1.70
2023-03-30T13:27:06.652Z,2.30
2023-03-30T13:29:33.807Z,2.05
2023-03-30T13:32:00.985Z,1.85
2023-03-30T13:34:28.066Z,1.58
2023-03-30T13:36:55.296Z,2.13
2023-03-30T13:39:22.438Z,1.20
2023-03-30T13:41:49.637Z,1.40
2023-03-30T13:44:16.712Z,1.73
2023-03-30T13:46:43.899Z,2.00
2023-03-30T13:49:10.996Z,1.40
2023-03-30T13:51:38.106Z,1.73
2023-03-30T13:54:05.331Z,1.33
2023-03-30T13:56:32.425Z,1.95
2023-03-30T13:58:59.625Z,1.13
2023-03-30T14:01:26.757Z,2.22
2023-03-30T14:03:53.985Z,1.20
2023-03-30T14:06:21.265Z,1.80
2023-03-30T14:08:48.366Z,1.60
2023-03-30T14:11:15.550Z,1.50
2023-03-30T14:13:42.633Z,1.40
2023-03-30T14:16:09.768Z,1.50
2023-03-30T14:18:37.013Z,1.38
2023-03-30T14:21:04.383Z,1.58
2023-03-30T14:23:31.671Z,1.60
2023-03-30T14:25:58.865Z,1.58
2023-03-30T14:28:26.003Z,1.58
2023-03-30T14:30:53.132Z,2.03
2023-03-30T14:33:20.316Z,1.65
2023-03-30T14:35:47.476Z,1.60
2023-03-30T14:38:17.054Z,1.52
2023-03-30T14:40:44.723Z,1.60
2023-03-30T14:43:11.880Z,1.65
2023-03-30T14:45:41.516Z,1.42
2023-03-30T14:48:08.670Z,1.48
2023-03-30T14:50:35.997Z,1.38
2023-03-30T14:53:03.073Z,1.13
2023-03-30T14:55:30.182Z,1.42
2023-03-30T14:57:57.349Z,1.60
2023-03-30T15:00:24.484Z,1.48
2023-03-30T15:02:51.663Z,1.35
2023-03-30T15:05:18.790Z,1.15
2023-03-30T15:07:45.904Z,1.60
2023-03-30T15:10:13.077Z,1.27
2023-03-30T15:12:40.233Z,1.88
2023-03-30T15:15:07.401Z,2.00
2023-03-30T15:17:34.520Z,1.80
2023-03-30T15:20:01.665Z,1.65
2023-03-30T15:22:28.827Z,1.67
2023-03-30T15:24:55.905Z,1.40
2023-03-30T15:27:23.135Z,1.60
2023-03-30T15:29:50.261Z,1.60
2023-03-30T15:32:17.559Z,1.73
2023-03-30T15:34:44.671Z,1.77
2023-03-30T15:37:11.816Z,1.52
2023-03-30T15:39:38.936Z,1.30
2023-03-30T15:42:06.021Z,1.20
2023-03-30T15:44:33.162Z,1.50
2023-03-30T15:47:00.411Z,1.50
2023-03-30T15:49:27.538Z,1.25
2023-03-30T15:51:54.621Z,1.77
2023-03-30T15:54:21.679Z,1.60
2023-03-30T15:56:48.841Z,2.00
2023-03-30T15:59:16.036Z,1.30
2023-03-30T16:01:43.230Z,1.65
2023-03-30T16:04:10.833Z,1.77
2023-03-30T16:06:38.667Z,1.20
2023-03-30T16:09:06.524Z,1.50
2023-03-30T16:11:33.613Z,1.40
2023-03-30T16:14:00.713Z,1.75
2023-03-30T16:16:27.870Z,1.55
2023-03-30T16:18:55.038Z,1.73
2023-03-30T16:21:22.174Z,1.38
2023-03-30T16:23:49.296Z,1.67
2023-03-30T16:26:16.428Z,1.27
2023-03-30T17:56:34.997Z,0.40
2023-03-30T18:01:53.676Z,0.50
2023-03-30T18:04:23.971Z,0.40
2023-03-30T18:07:02.028Z,0.63
2023-03-30T18:09:39.194Z,0.60
2023-03-30T18:12:23.400Z,0.60
2023-03-30T18:17:51.349Z,0.80
2023-03-30T18:20:19.217Z,0.73
2023-03-30T18:22:46.257Z,0.52
2023-03-30T18:25:21.955Z,0.80
2023-03-30T18:27:58.426Z,0.55
2023-03-30T18:30:29.815Z,0.90
2023-03-30T18:47:30.167Z,0.60
2023-03-30T18:50:15.425Z,0.63
2023-03-30T18:52:45.355Z,0.82
2023-03-30T18:55:18.478Z,0.50
2023-03-30T18:57:52.444Z,0.80
2023-03-30T19:03:35.100Z,1.02
2023-03-30T19:11:53.412Z,0.73
2023-03-30T19:14:20.448Z,0.73
2023-03-30T19:16:47.552Z,0.80
2023-03-30T19:19:15.722Z,0.47
2023-03-30T19:21:42.960Z,0.70
2023-03-30T19:24:10.036Z,0.55
2023-03-30T19:26:37.451Z,0.70
2023-03-30T19:29:04.674Z,0.65
2023-03-30T19:31:32.265Z,0.80
2023-03-30T19:33:59.495Z,0.85
2023-03-30T19:36:26.852Z,0.40
2023-03-30T19:44:11.572Z,0.45
2023-03-30T19:46:42.793Z,0.57
2023-03-30T19:49:10.497Z,0.60
2023-03-30T19:51:40.090Z,0.63
2023-03-30T19:54:08.707Z,0.60
2023-03-30T19:56:36.526Z,0.80
2023-03-30T19:59:05.151Z,0.63
2023-03-30T20:01:40.841Z,0.65
2023-03-30T20:04:08.309Z,0.50
2023-03-30T20:06:35.680Z,0.50
2023-03-30T20:09:03.429Z,0.93
2023-03-30T20:11:31.203Z,0.65
2023-03-30T20:13:58.454Z,1.00
2023-03-30T20:16:28.468Z,0.85
2023-03-30T20:18:56.507Z,1.15
2023-03-30T20:21:24.202Z,1.17
2023-03-30T20:23:52.240Z,1.40
2023-03-30T20:26:20.480Z,1.17
2023-03-30T20:28:47.954Z,1.63
2023-03-30T20:31:16.079Z,1.00
2023-03-30T20:33:43.334Z,0.90
2023-03-30T20:36:11.508Z,1.08
2023-03-30T20:38:38.943Z,0.90
2023-03-30T20:41:09.629Z,0.50
2023-03-30T20:43:46.019Z,0.95
2023-03-30T20:46:21.520Z,0.90
2023-03-30T20:48:49.846Z,0.80
2023-03-30T20:51:18.155Z,0.98
2023-03-30T21:05:10.037Z,0.77
